Time;durP1;ratioP1;P1;durP2;ratioP2;P2;SDS_P1;SDS_P2;PMS_P1;PMS_P2;Temp;Humidity;BMP_temperature;BMP_pressure;BME280_temperature;BME280_humidity;BME280_pressure;Samples;Min_cycle;Max_cycle;Signal;HPM_P1;HPM_P2
2022/10/08 00:00:57;;;;;;;19.95;5.78;;;;;;;4.13;100.00;101234.42;1729601;83;21058;-66
2022/10/08 00:03:27;;;;;;;19.67;5.55;;;;;;;4.10;100.00;101231.80;1728951;83;21188;-66
2022/10/08 00:06:01;;;;;;;16.27;5.17;;;;;;;4.08;100.00;101237.00;1729730;82;21415;-65
2022/10/08 00:08:29;;;;;;;16.30;5.03;;;;;;;4.02;100.00;101229.56;1729374;83;21046;-66
2022/10/08 00:11:05;;;;;;;23.60;5.17;;;;;;;4.01;100.00;101226.53;1733312;82;21022;-65
2022/10/08 00:13:41;;;;;;;17.67;5.00;;;;;;;3.97;100.00;101229.09;1750355;82;21585;-66
2022/10/08 00:16:11;;;;;;;14.23;4.67;;;;;;;3.96;100.00;101226.05;1750315;82;21170;-67
2022/10/08 00:18:39;;;;;;;14.25;5.03;;;;;;;3.93;100.00;101220.83;1749805;82;21681;-65
2022/10/08 00:21:13;;;;;;;16.55;5.33;;;;;;;3.93;100.00;101222.54;1750558;82;21136;-65
2022/10/08 00:23:37;;;;;;;22.45;5.97;;;;;;;3.90;100.00;101219.48;1749812;82;21053;-66
2022/10/08 00:26:06;;;;;;;14.28;5.00;;;;;;;3.90;100.00;101223.39;1750200;82;21081;-65
2022/10/08 00:28:34;;;;;;;18.80;4.47;;;;;;;3.86;100.00;101213.80;1750481;82;21097;-65
2022/10/08 00:31:08;;;;;;;16.37;4.67;;;;;;;3.85;100.00;101215.97;1750120;82;21501;-66
2022/10/08 00:33:37;;;;;;;17.90;4.85;;;;;;;3.85;100.00;101215.11;1749926;82;21057;-67
2022/10/08 00:36:10;;;;;;;10.58;4.30;;;;;;;3.84;100.00;101209.00;1749931;82;21085;-65
2022/10/08 00:38:37;;;;;;;13.25;4.30;;;;;;;3.89;100.00;101211.23;1750170;82;21243;-65
2022/10/08 00:41:05;;;;;;;12.20;3.80;;;;;;;3.88;100.00;101205.56;1750136;82;21058;-66
2022/10/08 00:43:44;;;;;;;18.32;5.72;;;;;;;3.90;100.00;101201.23;1750187;82;21010;-65
2022/10/08 00:46:43;;;;;;;19.42;4.95;;;;;;;3.89;100.00;101202.11;1720282;83;21062;-65
2022/10/08 00:49:20;;;;;;;10.93;4.67;;;;;;;3.86;100.00;101196.86;1720535;83;21058;-66
2022/10/08 00:51:51;;;;;;;13.88;4.60;;;;;;;3.86;100.00;101196.86;1720648;83;21026;-65
2022/10/08 00:54:19;;;;;;;16.23;4.58;;;;;;;3.85;100.00;101189.91;1720479;83;21920;-65
2022/10/08 00:56:51;;;;;;;11.25;4.55;;;;;;;3.80;100.00;101189.02;1720326;83;21057;-65
2022/10/08 00:59:18;;;;;;;10.63;5.22;;;;;;;3.79;100.00;101180.73;1720256;83;21142;-66
2022/10/08 01:01:46;;;;;;;15.08;4.90;;;;;;;3.78;100.00;101182.48;1696339;83;21077;-66
2022/10/08 01:04:13;;;;;;;20.57;4.67;;;;;;;3.76;100.00;101183.33;1720348;83;21072;-66
2022/10/08 01:06:57;;;;;;;13.83;4.87;;;;;;;3.71;100.00;101177.22;1720393;83;21227;-65
2022/10/08 01:09:46;;;;;;;25.48;5.37;;;;;;;3.73;100.00;101182.87;1720528;83;21119;-66
2022/10/08 01:12:49;;;;;;;23.23;4.87;;;;;;;3.73;100.00;101177.67;1705734;83;21140;-65
2022/10/08 01:15:48;;;;;;;14.40;5.12;;;;;;;3.68;100.00;101174.56;1694605;84;21781;-66
2022/10/08 01:18:44;;;;;;;10.65;5.00;;;;;;;3.70;100.00;101174.16;1695053;84;21069;-65
2022/10/08 01:21:14;;;;;;;10.00;4.25;;;;;;;3.66;100.00;101177.59;1747966;82;21890;-67
2022/10/08 01:24:11;;;;;;;18.48;5.00;;;;;;;3.63;100.00;101168.45;1748170;82;21430;-65
2022/10/08 01:27:01;;;;;;;13.83;5.00;;;;;;;3.61;100.00;101166.27;1746727;82;21056;-65
2022/10/08 01:29:40;;;;;;;18.82;5.92;;;;;;;3.61;100.00;101169.73;1747911;82;21588;-65
2022/10/08 01:32:12;;;;;;;14.58;4.30;;;;;;;3.56;100.00;101172.30;1747700;82;21084;-64
2022/10/08 01:34:47;;;;;;;22.80;5.35;;;;;;;3.55;100.00;101170.57;1747351;82;21513;-65
2022/10/08 01:37:23;;;;;;;11.85;5.03;;;;;;;3.50;100.00;101172.27;1747782;82;21053;-66
2022/10/08 01:39:50;;;;;;;10.30;4.92;;;;;;;3.46;100.00;101169.63;1747894;82;21131;-66
2022/10/08 01:42:17;;;;;;;22.30;5.42;;;;;;;3.47;100.00;101172.66;1747862;82;21092;-66
2022/10/08 01:44:47;;;;;;;24.80;5.25;;;;;;;3.43;100.00;101170.48;1761650;80;20978;-65
2022/10/08 01:47:19;;;;;;;16.20;5.17;;;;;;;3.41;100.00;101170.89;1749633;80;21064;-65
2022/10/08 01:49:53;;;;;;;16.35;4.92;;;;;;;3.41;100.00;101171.33;1747886;80;21038;-66
2022/10/08 01:52:24;;;;;;;20.72;4.80;;;;;;;3.40;100.00;101176.94;1778783;80;21020;-66
2022/10/08 01:54:56;;;;;;;17.00;5.40;;;;;;;3.38;100.00;101179.95;1778791;80;21616;-65
2022/10/08 01:57:23;;;;;;;13.55;4.90;;;;;;;3.36;100.00;101175.19;1778706;80;20990;-65
2022/10/08 01:59:57;;;;;;;28.87;5.62;;;;;;;3.32;100.00;101179.92;1778991;80;21717;-66
2022/10/08 02:02:24;;;;;;;17.50;5.20;;;;;;;3.29;100.00;101174.66;1778230;80;21072;-66
2022/10/08 02:04:53;;;;;;;12.60;5.35;;;;;;;3.28;100.00;101176.84;1778940;80;21045;-66
2022/10/08 02:07:25;;;;;;;16.57;5.40;;;;;;;3.24;100.00;101177.22;1778612;80;21571;-67
2022/10/08 02:10:14;;;;;;;19.07;5.87;;;;;;;3.21;100.00;101175.91;1778521;80;21072;-65
2022/10/08 02:12:41;;;;;;;26.52;6.62;;;;;;;3.20;100.00;101174.57;1777944;80;21870;-65
2022/10/08 02:15:19;;;;;;;20.40;6.00;;;;;;;3.17;100.00;101178.45;1778426;80;21005;-66
2022/10/08 02:18:06;;;;;;;15.00;6.53;;;;;;;3.15;100.00;101175.42;1777511;80;21600;-64
2022/10/08 02:20:41;;;;;;;21.62;5.50;;;;;;;3.14;100.00;101178.87;1778773;80;21064;-67
2022/10/08 02:27:02;;;;;;;15.67;6.03;;;;;;;3.01;100.00;101179.59;1795803;79;26495;-64
2022/10/08 02:29:44;;;;;;;21.73;6.50;;;;;;;3.09;100.00;101183.16;1693891;84;21064;-66
2022/10/08 02:32:25;;;;;;;16.50;5.45;;;;;;;3.05;100.00;101174.87;1694114;84;22141;-65
2022/10/08 02:35:02;;;;;;;12.03;5.75;;;;;;;3.05;100.00;101181.38;1694161;84;26796;-66
2022/10/08 02:37:46;;;;;;;15.58;6.42;;;;;;;3.04;100.00;101179.64;1693846;84;21016;-66
2022/10/08 02:40:16;;;;;;;16.35;6.22;;;;;;;3.01;100.00;101182.19;1694128;84;21024;-65
2022/10/08 02:42:46;;;;;;;15.15;7.15;;;;;;;2.99;100.00;101178.73;1694355;84;21111;-65
2022/10/08 02:45:19;;;;;;;;;;;;;;;2.99;100.00;101177.43;1710515;83;21138;-64
2022/10/08 02:47:47;;;;;;;18.65;6.65;;;;;;;2.97;100.00;101180.44;1716080;83;20520;-64
2022/10/08 02:50:18;;;;;;;23.85;6.70;;;;;;;2.92;100.00;101179.09;1710286;83;21542;-65
2022/10/08 02:52:44;;;;;;;16.60;6.53;;;;;;;2.93;100.00;101176.05;1710597;83;21621;-66
2022/10/08 02:55:40;;;;;;;23.83;6.33;;;;;;;2.96;100.00;101173.47;1709983;83;21089;-66
2022/10/08 02:58:09;;;;;;;25.80;6.65;;;;;;;2.96;100.00;101179.98;1673865;83;21137;-66
2022/10/08 03:00:47;;;;;;;17.23;6.03;;;;;;;2.93;100.00;101186.45;1693522;84;22207;-66
2022/10/08 03:03:19;;;;;;;16.45;5.62;;;;;;;2.88;100.00;101180.34;1693850;84;21500;-64
2022/10/08 03:05:46;;;;;;;15.18;6.70;;;;;;;2.84;100.00;101183.75;1716536;83;21109;-65
2022/10/08 03:08:13;;;;;;;20.12;7.40;;;;;;;2.85;100.00;101183.78;1729083;82;21020;-65
2022/10/08 03:10:41;;;;;;;12.63;6.53;;;;;;;2.88;100.00;101184.23;1729120;83;21208;-66
2022/10/08 03:13:08;;;;;;;21.97;7.10;;;;;;;2.88;100.00;101181.64;1737084;82;21616;-64
2022/10/08 03:15:35;;;;;;;17.73;6.47;;;;;;;2.94;100.00;101185.59;1737442;82;21085;-65
2022/10/08 03:18:07;;;;;;;25.37;7.20;;;;;;;2.98;100.00;101175.66;1737481;82;21097;-65
2022/10/08 03:20:40;;;;;;;26.95;7.70;;;;;;;2.99;100.00;101176.13;1737691;82;21588;-65
2022/10/08 03:23:06;;;;;;;13.48;6.53;;;;;;;2.94;100.00;101177.78;1737380;82;21872;-65
2022/10/08 03:25:33;;;;;;;18.95;7.33;;;;;;;2.87;100.00;101174.67;1733525;82;21506;-66
2022/10/08 03:28:00;;;;;;;15.95;6.08;;;;;;;2.89;100.00;101172.96;1779292;80;21506;-65
2022/10/08 03:30:27;;;;;;;17.05;5.85;;;;;;;2.87;100.00;101179.87;1779439;80;21446;-65
2022/10/08 03:32:54;;;;;;;15.65;6.50;;;;;;;2.89;100.00;101178.17;1779568;80;21040;-66
2022/10/08 03:35:20;;;;;;;25.90;7.37;;;;;;;2.86;100.00;101174.23;1779371;80;21578;-64
2022/10/08 03:37:47;;;;;;;13.53;5.97;;;;;;;2.84;100.00;101175.95;1778832;80;21016;-65
2022/10/08 03:40:14;;;;;;;20.82;7.25;;;;;;;2.82;100.00;101177.66;1779006;80;21073;-64
2022/10/08 03:42:41;;;;;;;14.75;6.97;;;;;;;2.86;100.00;101169.03;1778897;80;21075;-65
2022/10/08 03:45:09;;;;;;;14.55;5.45;;;;;;;2.88;100.00;101175.13;1778851;80;21092;-65
2022/10/08 03:47:36;;;;;;;17.32;7.30;;;;;;;2.88;100.00;101177.73;1779268;80;21088;-65
2022/10/08 03:50:04;;;;;;;14.33;6.83;;;;;;;2.88;100.00;101179.04;1778769;80;21010;-65
2022/10/08 03:52:30;;;;;;;18.62;7.35;;;;;;;2.86;100.00;101175.54;1779383;80;21076;-65
2022/10/08 03:54:56;;;;;;;21.33;6.85;;;;;;;2.84;100.00;101178.55;1778971;80;20989;-65
2022/10/08 03:57:23;;;;;;;22.17;7.00;;;;;;;2.85;100.00;101178.98;1778922;80;21082;-65
2022/10/08 03:59:50;;;;;;;23.42;7.03;;;;;;;2.82;100.00;101178.95;1778771;80;21128;-65
2022/10/08 04:02:18;;;;;;;20.70;6.70;;;;;;;2.81;100.00;101172.89;1778808;80;21122;-64
2022/10/08 04:04:44;;;;;;;27.27;7.70;;;;;;;2.83;100.00;101171.58;1778979;80;21050;-65
2022/10/08 04:07:11;;;;;;;18.13;6.83;;;;;;;2.82;100.00;101180.25;1778908;80;21065;-66
2022/10/08 04:09:39;;;;;;;20.65;7.95;;;;;;;2.83;100.00;101175.08;1779076;80;21077;-66
2022/10/08 04:12:06;;;;;;;22.07;7.22;;;;;;;2.82;100.00;101167.25;1779002;80;21528;-67
2022/10/08 04:14:33;;;;;;;17.73;6.95;;;;;;;2.84;100.00;101170.75;1778729;80;21474;-65
2022/10/08 04:17:01;;;;;;;23.25;6.80;;;;;;;2.85;100.00;101167.27;1778922;80;21020;-67
2022/10/08 04:19:28;;;;;;;11.53;5.87;;;;;;;2.89;100.00;101174.27;1778970;80;21021;-66
2022/10/08 04:21:55;;;;;;;21.93;8.48;;;;;;;2.90;100.00;101174.73;1778961;80;21051;-64
2022/10/08 04:24:22;;;;;;;10.72;6.17;;;;;;;2.92;100.00;101169.08;1778884;80;21183;-66
2022/10/08 04:26:49;;;;;;;15.30;6.28;;;;;;;2.94;100.00;101175.18;1782816;80;21044;-65
2022/10/08 04:29:16;;;;;;;12.30;5.22;;;;;;;2.96;100.00;101170.00;1784571;80;21064;-66
2022/10/08 04:31:42;;;;;;;13.30;5.85;;;;;;;3.03;100.00;101171.81;1784616;80;21001;-65
2022/10/08 04:34:10;;;;;;;23.62;6.80;;;;;;;3.00;100.00;101172.66;1784896;80;21024;-65
2022/10/08 04:36:39;;;;;;;21.20;7.93;;;;;;;3.06;100.00;101175.73;1784156;80;21137;-66
2022/10/08 04:39:07;;;;;;;21.12;8.78;;;;;;;3.11;100.00;101171.04;1784476;80;22133;-66
2022/10/08 04:41:34;;;;;;;21.87;9.68;;;;;;;3.18;100.00;101165.91;1784504;80;21092;-65
2022/10/08 04:44:01;;;;;;;17.80;8.33;;;;;;;3.24;100.00;101169.41;1780417;80;21067;-65
2022/10/08 04:46:27;;;;;;;22.42;8.93;;;;;;;3.32;100.00;101164.30;1753570;81;21036;-66
2022/10/08 04:48:56;;;;;;;17.50;9.55;;;;;;;3.35;100.00;101167.78;1753596;81;21147;-68
2022/10/08 04:51:24;;;;;;;16.12;8.38;;;;;;;3.42;100.00;101166.11;1753418;81;20988;-66
2022/10/08 04:53:52;;;;;;;19.95;10.65;;;;;;;3.50;100.00;101167.06;1753798;81;20989;-66
2022/10/08 04:56:22;;;;;;;22.75;9.23;;;;;;;3.77;100.00;101168.13;1753544;81;22346;-65
2022/10/08 04:58:49;;;;;;;20.45;9.23;;;;;;;3.94;100.00;101173.05;1754071;81;21033;-66
2022/10/08 05:01:17;;;;;;;18.57;9.50;;;;;;;4.08;100.00;101170.96;1753599;81;21533;-67
2022/10/08 05:03:47;;;;;;;22.00;9.60;;;;;;;4.17;100.00;101172.32;1753905;81;21024;-65
2022/10/08 05:06:15;;;;;;;20.57;9.15;;;;;;;4.20;100.00;101177.55;1753389;81;21080;-67
2022/10/08 05:08:43;;;;;;;25.30;9.95;;;;;;;4.23;100.00;101167.12;1753858;81;21084;-66
2022/10/08 05:11:09;;;;;;;25.43;10.40;;;;;;;4.45;100.00;101168.55;1753546;81;21044;-67
2022/10/08 05:13:37;;;;;;;19.90;9.00;;;;;;;5.14;100.00;101161.81;1753770;81;21132;-68
2022/10/08 05:16:10;;;;;;;20.55;9.30;;;;;;;6.08;100.00;101162.70;1753523;81;21048;-67
2022/10/08 05:18:37;;;;;;;55.43;11.60;;;;;;;7.05;100.00;101161.45;1753677;81;21446;-67
2022/10/08 05:21:10;;;;;;;20.02;8.18;;;;;;;8.03;100.00;101155.42;1753484;81;21032;-68
2022/10/08 05:23:36;;;;;;;18.35;7.40;;;;;;;8.98;100.00;101149.04;1753406;81;21056;-68
2022/10/08 05:26:22;;;;;;;26.77;7.20;;;;;;;9.93;100.00;101144.45;1753772;81;21083;-68
2022/10/08 05:28:50;;;;;;;28.05;7.10;;;;;;;10.80;100.00;101148.02;1753254;81;21065;-68
2022/10/08 05:31:17;;;;;;;13.88;6.30;;;;;;;11.71;100.00;101144.55;1726421;81;21021;-67
2022/10/08 05:33:43;;;;;;;20.88;7.15;;;;;;;12.50;100.00;101140.70;1753687;81;21040;-68
2022/10/08 05:36:22;;;;;;;29.95;7.42;;;;;;;13.19;100.00;101150.05;1753459;81;21079;-71
2022/10/08 05:38:49;;;;;;;21.93;8.15;;;;;;;13.85;100.00;101145.27;1753580;81;21489;-68
2022/10/08 05:41:25;;;;;;;19.45;8.63;;;;;;;14.54;100.00;101144.61;1753739;81;21552;-69
2022/10/08 05:43:53;;;;;;;24.12;10.03;;;;;;;15.16;100.00;101137.80;1755862;80;21536;-67
2022/10/08 05:46:20;;;;;;;29.72;10.00;;;;;;;15.70;100.00;101139.13;1784817;80;21111;-67
2022/10/08 05:48:46;;;;;;;25.92;10.80;;;;;;;16.25;100.00;101142.98;1784657;80;21108;-68
2022/10/08 05:51:15;;;;;;;19.27;11.50;;;;;;;16.83;98.18;101136.35;1785060;80;21206;-68
2022/10/08 05:53:45;;;;;;;19.90;11.05;;;;;;;17.23;91.42;101135.80;1784591;80;21018;-68
2022/10/08 05:56:13;;;;;;;20.72;11.43;;;;;;;17.60;88.08;101139.30;1784912;80;21107;-67
2022/10/08 05:58:41;;;;;;;22.00;12.15;;;;;;;17.97;68.30;101138.78;1784572;80;21021;-67
2022/10/08 06:01:13;;;;;;;23.00;14.30;;;;;;;18.31;64.20;101142.31;1784813;80;21572;-68
2022/10/08 06:03:40;;;;;;;23.47;12.93;;;;;;;18.62;63.11;101145.54;1784495;80;21113;-70
2022/10/08 06:06:10;;;;;;;26.48;12.40;;;;;;;18.78;61.77;101145.59;1784578;80;21091;-67
2022/10/08 06:08:37;;;;;;;21.10;11.20;;;;;;;19.08;60.82;101140.34;1784669;80;21084;-67
2022/10/08 06:11:05;;;;;;;17.62;10.68;;;;;;;19.39;57.53;101136.77;1784714;80;21033;-68
2022/10/08 06:13:32;;;;;;;18.75;10.90;;;;;;;19.61;58.03;101134.20;1784469;80;21591;-67
2022/10/08 06:16:05;;;;;;;17.35;9.75;;;;;;;19.88;58.27;101136.59;1784951;80;21125;-67
2022/10/08 06:18:36;;;;;;;16.97;8.98;;;;;;;20.31;55.80;101128.64;1784560;80;20980;-68
2022/10/08 06:21:06;;;;;;;14.73;8.58;;;;;;;20.64;53.92;101127.50;1784629;80;20985;-69
2022/10/08 06:23:32;;;;;;;16.82;8.43;;;;;;;20.85;52.39;101121.73;1784682;80;20989;-69
2022/10/08 06:26:07;;;;;;;14.68;8.73;;;;;;;20.97;52.30;101126.29;1784258;80;21052;-68
2022/10/08 06:28:35;;;;;;;13.28;8.00;;;;;;;21.00;51.86;101122.06;1778567;80;21601;-68
2022/10/08 06:31:01;;;;;;;17.55;9.55;;;;;;;21.03;50.57;101111.17;1778573;80;21103;-69
2022/10/08 06:33:29;;;;;;;16.67;8.75;;;;;;;21.26;50.91;101111.48;1778754;80;21525;-71
2022/10/08 06:36:00;;;;;;;16.77;8.60;;;;;;;21.44;50.44;101108.95;1778706;80;21504;-68
2022/10/08 06:38:25;;;;;;;21.75;8.48;;;;;;;21.53;50.38;101108.33;1748286;80;21061;-67
2022/10/08 06:40:51;;;;;;;16.70;8.35;;;;;;;21.76;49.89;101112.59;1778545;80;21107;-68
2022/10/08 06:43:18;;;;;;;16.10;8.15;;;;;;;21.89;48.52;101112.61;1778534;80;21005;-68
2022/10/08 06:45:45;;;;;;;15.13;7.83;;;;;;;22.04;48.13;101110.22;1752261;80;21546;-68
2022/10/08 06:48:12;;;;;;;14.98;7.60;;;;;;;22.28;47.28;101110.34;1747725;82;21076;-67
2022/10/08 06:50:39;;;;;;;13.50;7.37;;;;;;;22.46;45.96;101106.84;1747961;82;21048;-68
2022/10/08 06:53:08;;;;;;;18.55;8.25;;;;;;;22.22;46.03;101110.77;1747993;82;21203;-70
2022/10/08 06:55:35;;;;;;;14.23;8.88;;;;;;;21.97;46.83;101108.91;1748254;82;21139;-68
2022/10/08 06:58:02;;;;;;;13.40;8.03;;;;;;;21.89;47.21;101106.77;1747857;82;21057;-68
2022/10/08 07:00:29;;;;;;;17.55;8.50;;;;;;;21.81;47.43;101103.77;1748054;82;21044;-68
2022/10/08 07:02:57;;;;;;;13.85;8.10;;;;;;;22.07;47.31;101106.47;1747734;82;21064;-67
2022/10/08 07:05:24;;;;;;;12.70;6.62;;;;;;;22.28;46.81;101108.16;1747705;82;21348;-69
2022/10/08 07:07:52;;;;;;;12.95;6.97;;;;;;;22.07;46.73;101102.44;1747670;82;21037;-67
2022/10/08 07:10:20;;;;;;;11.45;6.45;;;;;;;22.03;46.60;101107.64;1747497;82;21565;-68
2022/10/08 07:12:46;;;;;;;11.78;6.53;;;;;;;22.18;46.71;101099.38;1747699;82;21501;-69
2022/10/08 07:15:13;;;;;;;14.93;6.97;;;;;;;22.39;46.54;101101.05;1747877;82;21063;-70
2022/10/08 07:17:39;;;;;;;12.23;6.20;;;;;;;22.72;45.44;101099.58;1747979;82;21151;-69
2022/10/08 07:20:07;;;;;;;11.83;7.10;;;;;;;23.00;45.10;101090.87;1748062;82;21521;-68
2022/10/08 07:22:33;;;;;;;12.85;6.30;;;;;;;23.36;44.50;101083.73;1747910;82;21099;-68
2022/10/08 07:25:00;;;;;;;13.72;6.42;;;;;;;23.84;44.12;101082.31;1747770;82;21037;-70
2022/10/08 07:27:27;;;;;;;9.58;5.72;;;;;;;24.21;42.27;101072.69;1751033;81;21005;-69
2022/10/08 07:29:54;;;;;;;9.53;6.03;;;;;;;24.57;40.90;101072.08;1708264;78;21303;-64
2022/10/08 07:32:21;;;;;;;12.73;6.78;;;;;;;24.57;40.90;101072.08;1685517;85;21077;-65
2022/10/08 07:34:48;;;;;;;9.08;5.47;;;;;;;24.89;40.31;101060.89;1685512;83;21704;-64
2022/10/08 07:37:15;;;;;;;11.50;6.53;;;;;;;24.89;40.31;101060.89;1685537;85;21088;-65
2022/10/08 07:39:42;;;;;;;15.10;5.90;;;;;;;25.18;40.40;101054.92;1685521;85;20994;-66
2022/10/08 07:42:09;;;;;;;13.10;6.90;;;;;;;25.75;39.72;101059.03;1685616;85;21648;-65
2022/10/08 07:44:36;;;;;;;13.03;7.05;;;;;;;26.22;38.42;101060.44;1696472;83;21116;-66
2022/10/08 07:47:02;;;;;;;15.20;6.22;;;;;;;26.41;37.36;101061.88;1714349;83;21098;-65
2022/10/08 07:49:29;;;;;;;11.20;5.80;;;;;;;26.63;36.76;101057.27;1714348;83;21104;-65
2022/10/08 07:51:55;;;;;;;9.10;5.70;;;;;;;26.82;36.40;101055.95;1714692;83;21549;-64
2022/10/08 07:54:22;;;;;;;11.83;6.03;;;;;;;26.99;36.53;101052.57;1714237;83;21232;-66
2022/10/08 07:56:49;;;;;;;7.72;4.95;;;;;;;27.06;36.07;101052.86;1714132;83;21065;-66
2022/10/08 07:59:16;;;;;;;8.93;5.00;;;;;;;27.05;35.91;101048.94;1714230;83;21041;-66
2022/10/08 08:01:42;;;;;;;10.82;5.45;;;;;;;27.13;34.82;101046.39;1714229;83;21018;-65
2022/10/08 08:04:10;;;;;;;8.93;4.42;;;;;;;27.21;34.69;101037.08;1712154;82;21065;-65
2022/10/08 08:06:41;;;;;;;9.53;4.60;;;;;;;27.09;34.77;101040.91;1697891;84;21114;-67
2022/10/08 08:09:08;;;;;;;7.42;3.85;;;;;;;27.02;34.60;101034.36;1697527;83;21045;-66
2022/10/08 08:11:35;;;;;;;10.60;4.22;;;;;;;27.30;33.53;101028.11;1697646;84;21129;-65
2022/10/08 08:14:03;;;;;;;9.50;3.83;;;;;;;27.40;33.26;101031.67;1697520;83;21044;-67
2022/10/08 08:16:30;;;;;;;8.48;4.08;;;;;;;27.42;32.39;101027.45;1697948;84;21100;-66
2022/10/08 08:18:59;;;;;;;7.65;3.67;;;;;;;27.31;33.08;101019.02;1697674;83;21197;-65
2022/10/08 08:21:32;;;;;;;9.05;3.72;;;;;;;27.15;32.32;101025.48;1697997;84;21084;-65
2022/10/08 08:24:05;;;;;;;8.65;3.87;;;;;;;27.06;31.80;101019.58;1697659;84;21033;-65
2022/10/08 08:26:35;;;;;;;5.15;2.92;;;;;;;27.08;32.45;101022.48;1697784;84;22157;-67
2022/10/08 08:29:10;;;;;;;9.53;3.58;;;;;;;27.14;31.50;101017.00;1698952;84;21058;-65
2022/10/08 08:31:42;;;;;;;11.97;3.80;;;;;;;27.06;31.60;101012.81;1704630;84;21190;-64
2022/10/08 08:34:13;;;;;;;7.45;2.47;;;;;;;27.01;32.07;101006.48;1658772;86;21569;-65
2022/10/08 08:36:42;;;;;;;6.85;3.00;;;;;;;26.79;31.34;101013.85;1692226;84;21030;-65
2022/10/08 08:39:18;;;;;;;10.20;3.17;;;;;;;26.61;31.70;101002.02;1704559;84;21038;-66
2022/10/08 08:42:26;;;;;;;7.78;3.00;;;;;;;26.49;31.62;101008.02;1659082;86;21061;-66
2022/10/08 08:44:59;;;;;;;7.83;2.80;;;;;;;26.43;31.89;101009.91;1642864;86;21463;-66
2022/10/08 08:47:36;;;;;;;8.65;3.50;;;;;;;26.23;31.75;101009.52;1632187;87;21046;-66
2022/10/08 08:50:20;;;;;;;11.45;3.72;;;;;;;26.15;33.01;101004.28;1664465;86;21100;-66
2022/10/08 08:52:46;;;;;;;7.25;3.50;;;;;;;26.15;33.01;101004.28;1664601;86;21080;-66
2022/10/08 08:55:23;;;;;;;6.97;3.12;;;;;;;26.11;31.96;101000.17;1664217;86;21540;-66
2022/10/08 08:58:01;;;;;;;6.65;2.92;;;;;;;25.93;32.28;101004.50;1664211;86;21107;-65
2022/10/08 09:00:33;;;;;;;9.68;3.45;;;;;;;25.95;32.39;100997.97;1664258;86;21084;-65
2022/10/08 09:03:04;;;;;;;15.30;3.75;;;;;;;26.44;32.08;100993.23;1664361;86;21037;-67
2022/10/08 09:05:34;;;;;;;8.98;3.52;;;;;;;26.76;31.30;100986.27;1664267;83;21130;-66
2022/10/08 09:08:18;;;;;;;13.10;3.72;;;;;;;26.69;31.50;100975.68;1664459;86;21124;-65
2022/10/08 09:11:02;;;;;;;9.78;3.60;;;;;;;26.07;32.47;100987.93;1663702;83;21161;-64
2022/10/08 09:13:51;;;;;;;8.48;3.50;;;;;;;25.76;32.57;100980.30;1664262;86;21108;-66
2022/10/08 09:16:18;;;;;;;8.13;3.30;;;;;;;25.68;33.33;100978.78;1664301;86;21079;-65
2022/10/08 09:18:48;;;;;;;6.62;3.62;;;;;;;26.26;32.97;100976.84;1664393;86;21088;-66
2022/10/08 09:21:15;;;;;;;10.50;3.87;;;;;;;26.93;31.98;100969.33;1664520;86;21553;-65
2022/10/08 09:23:42;;;;;;;11.20;3.90;;;;;;;27.36;31.07;100962.64;1664354;86;21196;-66
2022/10/08 09:26:20;;;;;;;10.75;3.87;;;;;;;27.29;30.50;100966.08;1664174;86;21100;-66
2022/10/08 09:28:51;;;;;;;8.73;2.92;;;;;;;26.72;30.75;100963.23;1664282;86;21077;-66
2022/10/08 09:31:24;;;;;;;8.78;3.10;;;;;;;26.55;30.93;100956.69;1690545;84;21047;-66
2022/10/08 09:34:01;;;;;;;9.50;3.47;;;;;;;26.46;30.58;100952.94;1691925;84;21003;-67
2022/10/08 09:36:34;;;;;;;6.87;2.80;;;;;;;26.70;31.05;100955.75;1691476;84;21302;-67
2022/10/08 09:39:03;;;;;;;10.18;2.90;;;;;;;27.14;30.42;100946.70;1691850;84;21014;-66
2022/10/08 09:41:29;;;;;;;4.47;2.47;;;;;;;27.43;30.00;100941.78;1691638;84;20995;-65
2022/10/08 09:44:20;;;;;;;10.28;3.52;;;;;;;27.53;29.47;100939.88;1694692;83;21086;-66
2022/10/08 09:46:47;;;;;;;7.30;2.47;;;;;;;27.89;29.23;100944.13;1663866;86;21129;-65
2022/10/08 09:49:34;;;;;;;7.05;2.80;;;;;;;28.23;28.64;100934.91;1663774;86;21137;-65
2022/10/08 09:52:24;;;;;;;11.05;2.83;;;;;;;28.20;28.48;100926.55;1663724;86;21613;-66
2022/10/08 09:54:58;;;;;;;12.40;3.47;;;;;;;28.20;28.48;100926.55;1663735;86;21038;-67
2022/10/08 09:57:25;;;;;;;9.08;2.90;;;;;;;28.43;28.20;100918.84;1655491;86;21117;-66
2022/10/08 09:59:55;;;;;;;9.65;2.65;;;;;;;28.36;28.28;100922.33;1663681;85;21589;-67
2022/10/08 10:02:32;;;;;;;5.92;2.60;;;;;;;28.40;28.00;100912.89;1663395;86;21157;-67
2022/10/08 10:05:01;;;;;;;8.63;2.80;;;;;;;28.41;27.98;100914.58;1640407;84;21071;-65
2022/10/08 10:07:45;;;;;;;6.90;2.33;;;;;;;28.53;27.60;100909.34;1663478;86;21078;-65
2022/10/08 10:10:33;;;;;;;8.40;2.70;;;;;;;28.64;27.31;100913.17;1662474;84;21657;-67
2022/10/08 10:13:22;;;;;;;7.65;2.60;;;;;;;28.37;27.01;100903.22;1663711;85;21018;-67
2022/10/08 10:16:00;;;;;;;8.48;2.40;;;;;;;27.89;26.57;100901.67;1662552;85;21138;-66
2022/10/08 10:18:40;;;;;;;14.10;3.40;;;;;;;27.73;27.17;100898.73;1663697;86;21057;-66
2022/10/08 10:21:09;;;;;;;;;;;;;;;28.06;27.22;100894.58;1662838;86;21074;-67
2022/10/08 10:23:42;;;;;;;9.18;2.80;;;;;;;28.44;26.74;100883.14;1663409;86;20204;-65
2022/10/08 10:26:20;;;;;;;7.97;2.95;;;;;;;28.28;26.13;100880.28;1663738;86;21107;-66
2022/10/08 10:29:06;;;;;;;5.85;2.58;;;;;;;27.68;26.38;100881.59;1663549;86;21630;-65
2022/10/08 10:31:46;;;;;;;12.28;3.10;;;;;;;27.14;27.14;100876.41;1649882;85;21626;-66
2022/10/08 10:34:27;;;;;;;14.07;2.50;;;;;;;27.14;27.14;100876.41;1676427;85;21621;-65
2022/10/08 10:37:01;;;;;;;7.90;2.55;;;;;;;27.06;27.26;100873.60;1676327;85;21080;-67
2022/10/08 10:39:36;;;;;;;7.75;2.25;;;;;;;27.11;26.78;100863.19;1675334;85;21063;-65
2022/10/08 10:42:26;;;;;;;9.73;2.70;;;;;;;26.91;26.88;100853.77;1676468;85;21126;-65
2022/10/08 10:44:59;;;;;;;7.60;2.72;;;;;;;26.98;27.27;100849.47;1670343;85;21087;-65
2022/10/08 10:47:30;;;;;;;7.72;2.50;;;;;;;26.71;28.10;100854.78;1664696;86;21100;-66
2022/10/08 10:49:57;;;;;;;11.05;2.98;;;;;;;26.78;27.59;100847.33;1664532;86;22190;-65
2022/10/08 10:53:12;;;;;;;8.38;2.27;;;;;;;26.93;26.96;100838.77;1664606;86;21076;-66
2022/10/08 10:56:05;;;;;;;8.15;2.60;;;;;;;26.77;27.65;100835.30;1664388;86;22104;-65
2022/10/08 10:59:04;;;;;;;11.65;2.47;;;;;;;26.67;28.08;100836.67;1664437;86;21566;-65
2022/10/08 11:01:56;;;;;;;5.35;2.10;;;;;;;26.68;28.14;100832.12;1664626;86;21529;-64
2022/10/08 11:05:08;;;;;;;6.85;2.47;;;;;;;26.61;27.46;100829.64;1664513;83;21679;-65
2022/10/08 11:07:58;;;;;;;7.55;2.40;;;;;;;26.73;27.78;100819.02;1664739;86;21123;-64
2022/10/08 11:11:00;;;;;;;7.58;2.95;;;;;;;26.81;27.55;100824.56;1664548;83;21069;-66
2022/10/08 11:13:52;;;;;;;10.53;2.77;;;;;;;26.52;28.16;100818.66;1664399;86;21042;-65
2022/10/08 11:16:44;;;;;;;10.03;2.52;;;;;;;26.35;28.38;100811.30;1664435;86;21443;-65
2022/10/08 11:19:32;;;;;;;10.93;2.85;;;;;;;26.05;28.91;100809.08;1664602;86;21069;-65
2022/10/08 11:22:13;;;;;;;8.33;2.87;;;;;;;25.62;29.51;100808.89;1637460;86;21037;-65
2022/10/08 11:24:51;;;;;;;6.08;2.72;;;;;;;25.34;30.23;100794.33;1664575;86;22071;-66
2022/10/08 11:27:52;;;;;;;7.00;3.05;;;;;;;25.36;30.23;100794.20;1664351;86;21073;-66
2022/10/08 11:30:29;;;;;;;7.58;2.37;;;;;;;25.48;29.61;100788.55;1664718;84;28238;-66
2022/10/08 11:32:55;;;;;;;9.98;2.67;;;;;;;25.27;29.16;100777.84;1666710;86;21057;-66
2022/10/08 11:36:09;;;;;;;8.93;2.42;;;;;;;24.85;29.35;100776.56;1666833;86;21080;-66
2022/10/08 11:39:01;;;;;;;5.03;2.10;;;;;;;24.61;29.58;100775.98;1666803;86;21141;-66
2022/10/08 11:41:45;;;;;;;4.53;2.37;;;;;;;24.37;30.32;100764.95;1666474;86;21647;-66
2022/10/08 11:44:13;;;;;;;5.08;2.40;;;;;;;24.25;31.13;100767.35;1675525;84;21057;-66
2022/10/08 11:46:39;;;;;;;3.47;2.17;;;;;;;24.21;30.59;100763.20;1662015;86;21515;-66
2022/10/08 11:49:25;;;;;;;8.98;2.00;;;;;;;24.15;29.63;100763.71;1661909;86;21129;-65